Time;durP1;ratioP1;P1;durP2;ratioP2;P2;SDS_P1;SDS_P2;PMS_P1;PMS_P2;Temp;Humidity;BMP_temperature;BMP_pressure;BME280_temperature;BME280_humidity;BME280_pressure;Samples;Min_cycle;Max_cycle;Signal;HPM_P1;HPM_P2
2023/08/19 00:00:09;;;;;;;;;15.60;14.40;;;;;21.75;74.49;99653.25;4979916;28;8862;-89
2023/08/19 00:02:37;;;;;;;;;22.40;18.60;;;;;21.75;74.93;99649.69;4979355;28;8841;-89
2023/08/19 00:05:05;;;;;;;;;15.60;14.80;;;;;21.72;74.44;99640.09;4979565;28;8848;-89
2023/08/19 00:07:32;;;;;;;;;15.20;15.00;;;;;21.72;74.78;99644.69;4978992;28;8860;-89
2023/08/19 00:10:01;;;;;;;;;19.40;17.80;;;;;21.67;75.01;99644.44;4979206;28;8858;-89
2023/08/19 00:12:28;;;;;;;;;24.80;21.80;;;;;21.62;75.17;99646.88;4979170;28;9507;-89
2023/08/19 00:14:56;;;;;;;;;22.40;21.80;;;;;21.59;74.99;99647.28;4978963;28;8880;-87
2023/08/19 00:17:24;;;;;;;;;19.20;18.20;;;;;21.55;74.98;99643.31;4979188;28;9622;-87
2023/08/19 00:19:51;;;;;;;;;12.80;11.40;;;;;21.52;75.46;99638.25;4978803;28;8972;-87
2023/08/19 00:22:19;;;;;;;;;20.00;19.60;;;;;21.48;75.43;99647.84;4978710;28;8867;-87
2023/08/19 00:24:46;;;;;;;;;18.20;15.40;;;;;21.44;75.40;99638.41;4978896;28;9155;-87
2023/08/19 00:27:14;;;;;;;;;14.00;14.00;;;;;21.40;75.18;99634.44;4978690;28;9511;-88
2023/08/19 00:29:42;;;;;;;;;13.20;12.00;;;;;21.35;75.64;99632.31;4978137;28;8852;-87
2023/08/19 00:32:10;;;;;;;;;20.20;18.80;;;;;21.32;75.63;99632.72;4978845;28;8841;-88
2023/08/19 00:34:37;;;;;;;;;18.00;17.60;;;;;21.30;75.40;99626.66;4978833;28;8840;-88
2023/08/19 00:37:07;;;;;;;;;18.40;15.20;;;;;21.28;75.95;99630.59;4978621;28;8852;-87
2023/08/19 00:39:34;;;;;;;;;18.60;18.00;;;;;21.24;75.38;99627.44;4978509;28;9031;-87
2023/08/19 00:42:02;;;;;;;;;17.00;14.20;;;;;21.21;76.15;99629.72;4977952;28;8864;-87
2023/08/19 00:44:33;;;;;;;;;17.20;15.20;;;;;21.17;75.76;99634.69;4978822;28;8836;-88
2023/08/19 00:47:01;;;;;;;;;14.40;14.20;;;;;21.12;76.44;99623.59;4978594;28;8828;-88
2023/08/19 00:49:28;;;;;;;;;15.00;14.20;;;;;21.09;76.33;99621.28;4978457;28;8841;-88
2023/08/19 00:51:56;;;;;;;;;15.00;14.20;;;;;21.04;76.18;99623.75;4978070;28;8848;-89
2023/08/19 00:54:24;;;;;;;;;15.80;14.60;;;;;21.04;76.44;99628.34;4978171;28;8855;-89
2023/08/19 00:56:51;;;;;;;;;12.80;11.60;;;;;21.01;75.95;99626.84;4978098;28;8867;-89
2023/08/19 00:59:19;;;;;;;;;19.60;17.00;;;;;21.03;75.97;99626.66;4977604;28;8837;-89
2023/08/19 01:01:46;;;;;;;;;21.00;18.40;;;;;21.01;76.21;99632.28;4977515;28;8837;-87
2023/08/19 01:04:14;;;;;;;;;13.00;12.50;;;;;21.01;76.10;99623.28;4978009;28;8931;-87
2023/08/19 01:06:42;;;;;;;;;18.20;16.60;;;;;20.99;76.33;99625.38;4977053;28;8844;-88
2023/08/19 01:09:09;;;;;;;;;17.20;16.40;;;;;20.97;76.22;99624.75;4977721;28;9518;-88
2023/08/19 01:11:37;;;;;;;;;20.40;20.00;;;;;20.94;76.27;99625.97;4977054;28;8821;-89
2023/08/19 01:14:05;;;;;;;;;15.40;14.60;;;;;20.92;76.29;99626.38;4977447;28;8856;-89
2023/08/19 01:16:33;;;;;;;;;16.80;16.00;;;;;20.88;76.52;99623.22;4977166;28;8852;-89
2023/08/19 01:19:00;;;;;;;;;14.60;14.20;;;;;20.85;76.27;99616.28;4977757;28;8836;-89
2023/08/19 01:21:28;;;;;;;;;14.60;14.60;;;;;20.83;76.37;99620.22;4977526;28;8866;-89
2023/08/19 01:23:56;;;;;;;;;14.20;13.80;;;;;20.81;76.21;99617.69;4977715;28;8852;-89
2023/08/19 01:26:23;;;;;;;;;14.60;14.00;;;;;20.79;76.79;99614.34;4977685;28;8876;-89
2023/08/19 01:28:51;;;;;;;;;16.00;15.00;;;;;20.79;76.84;99613.50;4977476;28;8899;-88
2023/08/19 01:31:19;;;;;;;;;14.00;14.00;;;;;20.78;76.73;99612.69;4976910;28;8913;-89
2023/08/19 01:33:47;;;;;;;;;11.00;11.00;;;;;20.76;76.20;99608.47;4976978;28;8863;-89
2023/08/19 01:36:15;;;;;;;;;17.60;14.80;;;;;20.75;76.23;99614.94;4976781;28;8964;-89
2023/08/19 01:38:43;;;;;;;;;12.20;11.20;;;;;20.74;76.62;99610.56;4977153;28;8867;-89
2023/08/19 01:41:11;;;;;;;;;14.00;12.00;;;;;20.73;76.81;99608.03;4976743;28;8855;-89
2023/08/19 01:43:38;;;;;;;;;14.00;13.60;;;;;20.71;76.41;99613.63;4977451;28;8833;-88
2023/08/19 01:46:06;;;;;;;;;13.00;11.80;;;;;20.70;76.72;99605.72;4976965;28;8860;-88
2023/08/19 01:48:33;;;;;;;;;18.00;18.00;;;;;20.70;76.71;99614.66;4977337;28;8837;-89
2023/08/19 01:51:01;;;;;;;;;13.20;13.00;;;;;20.69;76.33;99615.69;4976887;28;8847;-88
2023/08/19 01:53:28;;;;;;;;;14.00;14.00;;;;;20.67;76.26;99615.06;4977024;28;8918;-88
2023/08/19 01:55:56;;;;;;;;;15.20;14.00;;;;;20.67;76.38;99627.75;4977603;28;8828;-89
2023/08/19 01:58:24;;;;;;;;;13.60;11.60;;;;;20.64;76.73;99615.44;4977744;28;8828;-88
2023/08/19 02:00:51;;;;;;;;;15.20;14.60;;;;;20.64;76.89;99630.84;4977146;28;8852;-88
2023/08/19 02:03:19;;;;;;;;;13.80;12.20;;;;;20.62;76.54;99625.63;4976543;28;9605;-89
2023/08/19 02:05:47;;;;;;;;;14.80;14.80;;;;;20.62;76.72;99625.63;4976822;28;9511;-89
2023/08/19 02:08:14;;;;;;;;;15.40;15.20;;;;;20.62;76.90;99627.50;4976803;28;8841;-88
2023/08/19 02:10:42;;;;;;;;;12.60;11.80;;;;;20.61;76.47;99626.66;4977216;28;8852;-88
2023/08/19 02:13:10;;;;;;;;;15.20;14.80;;;;;20.61;76.47;99626.66;4977189;28;8863;-87
2023/08/19 02:15:37;;;;;;;;;14.40;13.40;;;;;20.60;77.10;99614.16;4976984;28;8813;-87
2023/08/19 02:18:05;;;;;;;;;11.00;11.00;;;;;20.61;76.91;99625.81;4977131;28;8971;-87
2023/08/19 02:20:33;;;;;;;;;11.40;11.20;;;;;20.60;76.37;99624.13;4976609;28;8845;-88
2023/08/19 02:23:01;;;;;;;;;15.00;14.20;;;;;20.60;76.85;99618.72;4976318;28;8856;-87
2023/08/19 02:25:29;;;;;;;;;14.80;14.00;;;;;20.58;76.77;99616.22;4976455;28;8892;-88
2023/08/19 02:27:56;;;;;;;;;11.00;11.00;;;;;20.59;76.67;99614.34;4976472;28;8848;-88
2023/08/19 02:30:24;;;;;;;;;12.20;11.00;;;;;20.55;76.46;99603.06;4977113;28;8911;-88
2023/08/19 02:32:52;;;;;;;;;14.40;13.20;;;;;20.55;77.03;99608.50;4976627;28;8833;-87
2023/08/19 02:35:19;;;;;;;;;16.00;14.20;;;;;20.53;76.69;99599.72;4976320;28;8833;-87
2023/08/19 02:37:47;;;;;;;;;14.60;14.00;;;;;20.54;77.03;99612.22;4976151;28;8935;-89
2023/08/19 02:40:15;;;;;;;;;19.20;16.60;;;;;20.52;76.91;99606.19;4976371;28;8848;-89
2023/08/19 02:42:44;;;;;;;;;14.80;13.80;;;;;20.51;77.03;99615.34;4976433;28;8836;-89
2023/08/19 02:45:12;;;;;;;;;16.00;13.60;;;;;20.50;77.01;99607.41;4976656;28;8856;-89
2023/08/19 02:47:39;;;;;;;;;14.20;13.80;;;;;20.48;77.02;99610.28;4975854;28;8887;-89
2023/08/19 02:50:07;;;;;;;;;14.00;13.00;;;;;20.47;77.04;99608.63;4976242;28;8858;-89
2023/08/19 02:52:34;;;;;;;;;11.80;10.60;;;;;20.49;76.55;99606.53;4975882;28;8963;-88
2023/08/19 02:55:02;;;;;;;;;14.60;13.60;;;;;20.48;76.87;99607.56;4975782;28;8857;-89
2023/08/19 02:57:29;;;;;;;;;13.80;11.60;;;;;20.48;76.76;99599.47;4976769;28;9596;-89
2023/08/19 02:59:57;;;;;;;;;13.00;13.00;;;;;20.48;76.59;99607.56;4976153;28;8860;-89
2023/08/19 03:02:25;;;;;;;;;12.00;10.80;;;;;20.49;76.93;99605.72;4975806;28;8824;-89
2023/08/19 03:04:53;;;;;;;;;14.40;12.80;;;;;20.48;77.05;99613.00;4975912;28;8845;-89
2023/08/19 03:07:20;;;;;;;;;13.20;13.00;;;;;20.47;76.82;99610.50;4975609;28;8860;-88
2023/08/19 03:09:48;;;;;;;;;14.00;14.00;;;;;20.47;76.96;99611.31;4975937;28;9486;-89
2023/08/19 03:12:16;;;;;;;;;13.60;13.00;;;;;20.46;77.15;99604.25;4975314;28;8852;-89
2023/08/19 03:14:43;;;;;;;;;10.60;10.20;;;;;20.47;76.73;99603.22;4976441;28;8832;-89
2023/08/19 03:17:11;;;;;;;;;12.20;11.80;;;;;20.48;76.80;99599.47;4976186;28;8848;-89
2023/08/19 03:19:38;;;;;;;;;13.40;13.40;;;;;20.49;76.71;99595.72;4976147;28;8844;-89
2023/08/19 03:22:07;;;;;;;;;9.80;9.60;;;;;20.50;76.96;99591.16;4975885;28;8871;-89
2023/08/19 03:24:35;;;;;;;;;11.20;11.20;;;;;20.49;76.96;99590.31;4975604;28;8841;-89
2023/08/19 03:27:02;;;;;;;;;12.80;11.60;;;;;20.48;76.89;99577.81;4975394;28;8859;-89
2023/08/19 03:29:30;;;;;;;;;11.80;11.60;;;;;20.46;76.74;99579.88;4975211;28;8864;-89
2023/08/19 03:31:58;;;;;;;;;9.60;9.60;;;;;20.44;76.58;99568.44;4975889;28;8859;-89
2023/08/19 03:34:25;;;;;;;;;10.80;9.60;;;;;20.41;76.63;99568.81;4975125;28;8844;-89
2023/08/19 03:36:53;;;;;;;;;13.80;12.40;;;;;20.40;77.02;99561.72;4976467;28;8841;-89
2023/08/19 03:39:20;;;;;;;;;9.60;9.60;;;;;20.40;77.25;99564.44;4975224;28;8820;-88
2023/08/19 03:41:48;;;;;;;;;12.80;11.00;;;;;20.41;77.21;99554.47;4975389;28;9543;-87
2023/08/19 03:44:15;;;;;;;;;10.80;10.00;;;;;20.41;77.02;99557.16;4976365;28;8967;-87
2023/08/19 03:46:43;;;;;;;;;12.80;11.20;;;;;20.40;76.61;99564.44;4975598;28;8853;-87
2023/08/19 03:49:11;;;;;;;;;11.60;10.80;;;;;20.40;76.45;99559.00;4976580;28;8923;-88
2023/08/19 03:51:38;;;;;;;;;12.80;11.40;;;;;20.42;76.94;99567.78;4975146;28;8848;-88
2023/08/19 03:54:06;;;;;;;;;11.80;11.40;;;;;20.42;76.59;99559.69;4975297;28;9542;-87
2023/08/19 03:56:34;;;;;;;;;10.80;8.80;;;;;20.44;76.68;99573.84;4975073;28;8841;-88
2023/08/19 03:59:02;;;;;;;;;10.80;10.40;;;;;20.44;76.31;99568.44;4975242;28;8844;-88
2023/08/19 04:01:29;;;;;;;;;10.00;10.00;;;;;20.47;76.70;99570.75;4975948;28;8833;-88
2023/08/19 04:03:57;;;;;;;;;12.40;11.40;;;;;20.49;76.47;99567.84;4976127;28;8856;-88
2023/08/19 04:06:24;;;;;;;;;8.00;8.00;;;;;20.50;76.76;99575.78;4979853;28;8915;-88
2023/08/19 04:08:52;;;;;;;;;11.00;8.00;;;;;20.50;76.32;99573.06;4978677;28;8848;-88
2023/08/19 04:11:20;;;;;;;;;13.00;11.00;;;;;20.49;76.58;99555.13;4977951;28;8863;-89
2023/08/19 04:13:48;;;;;;;;;11.00;10.00;;;;;20.49;76.68;99565.97;4978383;28;8825;-89
2023/08/19 04:16:15;;;;;;;;;11.00;10.00;;;;;20.49;76.46;99562.44;4979524;28;8817;-89
2023/08/19 04:18:43;;;;;;;;;7.60;7.40;;;;;20.48;76.66;99560.75;4978589;28;8848;-89
2023/08/19 04:21:10;;;;;;;;;8.80;8.00;;;;;20.47;76.32;99559.09;4978765;28;8900;-89
2023/08/19 04:23:39;;;;;;;;;9.20;9.20;;;;;20.46;76.94;99560.13;4978364;28;8828;-89
2023/08/19 04:26:06;;;;;;;;;8.60;7.00;;;;;20.46;76.50;99570.94;4978709;28;8967;-89
2023/08/19 04:28:34;;;;;;;;;8.00;8.00;;;;;20.49;76.88;99563.25;4978007;28;8895;-88
2023/08/19 04:31:01;;;;;;;;;13.00;10.20;;;;;20.50;76.78;99567.66;4977879;28;8833;-88
2023/08/19 04:33:29;;;;;;;;;10.00;10.00;;;;;20.51;76.62;99572.03;4978386;28;9538;-89
2023/08/19 04:35:58;;;;;;;;;7.80;7.20;;;;;20.51;76.34;99577.44;4978025;28;8851;-89
2023/08/19 04:38:26;;;;;;;;;8.00;8.00;;;;;20.51;76.45;99574.75;4978399;28;8840;-89
2023/08/19 04:40:53;;;;;;;;;10.60;8.00;;;;;20.53;76.83;99579.94;4978406;28;8841;-89
2023/08/19 04:43:21;;;;;;;;;9.60;8.40;;;;;20.55;76.58;99584.13;4977590;28;8928;-89
2023/08/19 04:45:48;;;;;;;;;9.20;9.20;;;;;20.59;76.48;99580.03;4977881;28;8855;-89
2023/08/19 04:48:16;;;;;;;;;7.80;7.80;;;;;20.61;76.46;99572.53;4978062;28;8857;-89
2023/08/19 04:50:44;;;;;;;;;9.00;8.00;;;;;20.65;76.20;99575.69;4977600;28;8871;-89
2023/08/19 04:53:11;;;;;;;;;7.40;7.40;;;;;20.70;75.98;99575.97;4978441;28;8856;-89
2023/08/19 04:55:39;;;;;;;;;10.00;8.00;;;;;20.75;75.99;99579.75;4978425;28;8872;-89
2023/08/19 04:58:06;;;;;;;;;10.20;10.20;;;;;20.81;75.80;99584.38;4979722;28;8832;-89
2023/08/19 05:00:35;;;;;;;;;9.40;8.40;;;;;20.90;75.17;99584.06;4978445;28;8863;-89
2023/08/19 05:03:03;;;;;;;;;8.00;7.00;;;;;20.99;75.41;99582.03;4977197;28;8927;-89
2023/08/19 05:05:31;;;;;;;;;7.40;7.00;;;;;21.10;74.91;99584.22;4977123;28;8840;-89
2023/08/19 05:07:58;;;;;;;;;8.00;7.00;;;;;21.19;74.69;99578.44;4977712;28;8966;-89
2023/08/19 05:10:26;;;;;;;;;10.00;9.40;;;;;21.26;74.94;99579.31;4978088;28;8840;-89
2023/08/19 05:12:54;;;;;;;;;7.40;7.00;;;;;21.33;74.82;99585.63;4977223;28;8833;-89
2023/08/19 05:15:22;;;;;;;;;10.00;8.80;;;;;21.44;74.02;99595.06;4976528;28;8871;-89
2023/08/19 05:17:50;;;;;;;;;7.60;7.00;;;;;21.55;74.05;99586.38;4977471;28;8836;-89
2023/08/19 05:20:17;;;;;;;;;12.00;11.40;;;;;21.63;74.14;99589.75;4977076;28;8968;-88
2023/08/19 05:22:45;;;;;;;;;8.00;8.00;;;;;21.72;73.70;99591.28;4977265;28;8847;-88
2023/08/19 05:25:12;;;;;;;;;7.20;7.20;;;;;21.78;73.39;99597.78;4977833;28;8856;-88
2023/08/19 05:27:40;;;;;;;;;10.80;8.60;;;;;21.83;73.47;99603.44;4977320;28;8879;-88
2023/08/19 05:30:08;;;;;;;;;11.60;11.20;;;;;21.88;73.83;99599.06;4976971;28;8853;-88
2023/08/19 05:32:35;;;;;;;;;8.00;7.40;;;;;21.96;73.38;99608.91;4977339;28;8841;-88
2023/08/19 05:35:03;;;;;;;;;8.20;8.00;;;;;22.04;73.12;99604.16;4976821;28;8858;-88
2023/08/19 05:37:32;;;;;;;;;8.00;7.60;;;;;22.13;73.05;99607.50;4976517;28;8832;-88
2023/08/19 05:40:00;;;;;;;;;8.60;7.80;;;;;22.20;73.11;99611.09;4976754;28;8864;-88
2023/08/19 05:42:28;;;;;;;;;9.60;8.80;;;;;22.27;73.07;99611.94;4976481;28;8845;-88
2023/08/19 05:44:56;;;;;;;;;6.80;6.80;;;;;22.31;72.59;99613.22;4976441;28;8864;-88
2023/08/19 05:47:24;;;;;;;;;9.60;8.20;;;;;22.36;72.38;99616.13;4976554;28;8857;-88
2023/08/19 05:49:51;;;;;;;;;5.60;5.60;;;;;22.41;72.64;99616.38;4976138;28;8856;-88
2023/08/19 05:52:19;;;;;;;;;6.00;6.00;;;;;22.46;72.71;99611.19;4976690;28;8852;-88
2023/08/19 05:54:46;;;;;;;;;9.00;9.00;;;;;22.52;72.47;99615.78;4976891;28;8952;-88
2023/08/19 05:57:14;;;;;;;;;8.00;8.00;;;;;22.58;71.89;99610.38;4976783;28;8844;-88
2023/08/19 05:59:42;;;;;;;;;7.20;6.60;;;;;22.67;72.28;99620.00;4976213;28;8868;-88
2023/08/19 06:02:09;;;;;;;;;7.60;7.60;;;;;22.76;71.91;99617.94;4976012;28;8852;-88
2023/08/19 06:04:37;;;;;;;;;6.00;6.00;;;;;22.82;71.83;99622.50;4975644;28;8844;-88
2023/08/19 06:07:05;;;;;;;;;10.00;9.00;;;;;22.89;71.78;99623.34;4975257;28;8882;-88
2023/08/19 06:09:32;;;;;;;;;8.40;8.40;;;;;22.92;71.71;99610.19;4976010;28;8852;-88
2023/08/19 06:12:00;;;;;;;;;9.00;8.00;;;;;22.98;71.80;99620.22;4974684;28;8840;-88
2023/08/19 06:14:27;;;;;;;;;8.40;7.60;;;;;23.02;71.21;99610.63;4975284;28;8864;-88
2023/08/19 06:16:55;;;;;;;;;9.00;8.00;;;;;23.05;71.65;99607.47;4975680;28;8832;-88
2023/08/19 06:19:23;;;;;;;;;9.40;8.80;;;;;23.09;71.60;99614.19;4975217;28;8878;-88
2023/08/19 06:21:51;;;;;;;;;11.80;10.20;;;;;23.13;71.61;99609.16;4975889;28;9554;-88
2023/08/19 06:24:18;;;;;;;;;8.00;6.80;;;;;23.19;71.44;99613.75;4975213;28;8841;-89
2023/08/19 06:26:46;;;;;;;;;9.20;9.20;;;;;23.26;71.51;99614.59;4973659;28;8860;-88
2023/08/19 06:29:13;;;;;;;;;10.00;9.20;;;;;23.34;71.39;99617.09;4974392;28;8836;-89
2023/08/19 06:31:41;;;;;;;;;11.60;9.60;;;;;23.42;71.01;99606.84;4974348;28;8850;-88
2023/08/19 06:34:09;;;;;;;;;10.60;9.40;;;;;23.55;70.53;99616.84;4974823;28;8844;-88
2023/08/19 06:36:36;;;;;;;;;7.60;7.40;;;;;23.67;70.75;99613.25;4974502;28;8849;-88
2023/08/19 06:39:05;;;;;;;;;7.00;5.00;;;;;23.84;70.16;99609.03;4975276;28;9569;-88
2023/08/19 06:41:32;;;;;;;;;8.40;8.20;;;;;24.01;69.67;99609.41;4975069;28;8848;-88
2023/08/19 06:44:01;;;;;;;;;9.80;9.00;;;;;24.20;69.87;99609.31;4974924;28;8836;-88
2023/08/19 06:46:29;;;;;;;;;6.80;6.00;;;;;24.43;68.58;99609.59;4974515;28;8864;-88
2023/08/19 06:48:56;;;;;;;;;6.80;6.00;;;;;24.65;68.46;99613.69;4975062;28;8848;-89
2023/08/19 06:51:24;;;;;;;;;4.60;4.20;;;;;24.86;68.00;99623.41;4975296;28;8868;-89
2023/08/19 06:53:51;;;;;;;;;5.60;5.60;;;;;25.03;67.84;99624.53;4974871;28;8856;-89
2023/08/19 06:56:19;;;;;;;;;5.80;5.80;;;;;25.19;67.25;99629.41;4974815;28;8833;-89
2023/08/19 06:58:47;;;;;;;;;5.40;5.40;;;;;25.36;66.75;99636.00;4974845;28;8825;-89
2023/08/19 07:01:14;;;;;;;;;5.00;5.00;;;;;25.54;66.54;99628.69;4974111;28;8852;-89
2023/08/19 07:03:42;;;;;;;;;8.40;7.00;;;;;25.68;66.52;99622.88;4973289;28;8867;-89
2023/08/19 07:06:10;;;;;;;;;6.40;6.20;;;;;25.79;66.50;99619.38;4972898;28;8871;-89
2023/08/19 07:08:37;;;;;;;;;7.00;7.00;;;;;25.88;66.12;99623.50;4972493;28;8875;-89
2023/08/19 07:11:05;;;;;;;;;5.80;5.00;;;;;25.98;66.09;99628.44;4973504;28;8852;-89
2023/08/19 07:13:33;;;;;;;;;3.00;3.00;;;;;26.05;65.49;99635.47;4973154;28;9301;-89
2023/08/19 07:16:01;;;;;;;;;5.60;5.20;;;;;26.14;65.23;99638.75;4973707;28;8849;-89
2023/08/19 07:18:29;;;;;;;;;5.80;5.80;;;;;26.23;65.36;99632.75;4975123;28;8898;-89
2023/08/19 07:20:57;;;;;;;;;3.00;2.80;;;;;26.34;65.63;99637.41;4974095;28;8843;-89
2023/08/19 07:23:25;;;;;;;;;7.20;7.00;;;;;26.45;64.94;99638.53;4974284;28;8845;-89
2023/08/19 07:25:52;;;;;;;;;7.20;7.20;;;;;26.53;64.90;99641.81;4974013;28;8837;-90
2023/08/19 07:28:20;;;;;;;;;6.00;4.40;;;;;26.60;64.53;99638.97;4974554;28;8974;-89
2023/08/19 07:30:48;;;;;;;;;5.40;5.40;;;;;26.67;64.44;99639.72;4974470;28;8861;-89
2023/08/19 07:33:16;;;;;;;;;7.20;7.20;;;;;26.74;64.47;99635.84;4974535;28;8966;-89
2023/08/19 07:35:44;;;;;;;;;4.20;4.20;;;;;26.82;64.57;99637.41;4974288;28;9603;-89
2023/08/19 07:38:11;;;;;;;;;3.60;3.60;;;;;26.88;64.58;99637.28;4974022;28;8840;-89
2023/08/19 07:40:39;;;;;;;;;8.80;8.00;;;;;26.95;64.17;99648.13;4977732;28;8879;-89
2023/08/19 07:43:06;;;;;;;;;8.20;8.00;;;;;27.00;64.36;99643.63;4977992;28;8859;-90
2023/08/19 07:45:35;;;;;;;;;7.80;4.40;;;;;27.06;63.88;99645.44;4977219;28;8888;-89
2023/08/19 07:48:02;;;;;;;;;8.00;7.00;;;;;27.13;64.10;99646.16;4977145;28;8911;-89
2023/08/19 07:50:30;;;;;;;;;8.20;7.00;;;;;27.22;63.45;99644.75;4977033;28;8870;-89
2023/08/19 07:52:58;;;;;;;;;7.60;7.00;;;;;27.31;63.49;99645.25;4977165;28;9503;-90
2023/08/19 07:55:26;;;;;;;;;6.40;6.20;;;;;27.38;63.83;99646.78;4977685;28;8883;-89
2023/08/19 07:57:53;;;;;;;;;1.00;1.00;;;;;27.45;63.90;99650.25;4977440;28;8837;-90
2023/08/19 08:00:22;;;;;;;;;2.00;2.00;;;;;27.55;63.58;99646.94;4977063;28;8860;-89
2023/08/19 08:02:50;;;;;;;;;7.60;7.60;;;;;27.62;63.49;99650.38;4977119;28;8852;-89
2023/08/19 08:05:18;;;;;;;;;8.40;7.80;;;;;27.70;63.08;99647.28;4977784;28;8844;-89
2023/08/19 08:07:46;;;;;;;;;6.40;6.00;;;;;27.79;63.25;99649.47;4976424;28;9050;-89
2023/08/19 08:10:13;;;;;;;;;6.00;6.00;;;;;27.88;63.14;99650.75;4976727;28;8863;-89
2023/08/19 08:12:41;;;;;;;;;9.00;8.00;;;;;27.93;62.35;99650.84;4976320;28;9592;-89
2023/08/19 08:15:09;;;;;;;;;7.00;6.00;;;;;27.99;62.13;99649.06;4976952;28;8848;-90
2023/08/19 08:17:37;;;;;;;;;4.60;4.60;;;;;28.05;62.15;99645.34;4976469;28;9491;-90
2023/08/19 08:20:05;;;;;;;;;5.00;5.00;;;;;28.10;62.50;99631.75;4976862;28;8852;-90
2023/08/19 08:22:33;;;;;;;;;8.20;7.00;;;;;28.16;62.60;99637.09;4976268;28;8836;-90
2023/08/19 08:25:01;;;;;;;;;7.00;6.40;;;;;28.20;62.36;99632.81;4976760;28;8852;-89
2023/08/19 08:27:29;;;;;;;;;6.60;6.00;;;;;28.28;61.73;99637.91;4976891;28;9499;-90
2023/08/19 08:29:57;;;;;;;;;6.20;6.00;;;;;28.38;61.67;99635.41;4975765;28;8864;-90
2023/08/19 08:32:25;;;;;;;;;7.20;7.00;;;;;28.45;61.68;99627.03;4975683;28;8979;-89
2023/08/19 08:34:53;;;;;;;;;7.00;5.80;;;;;28.49;61.46;99634.53;4975736;28;8879;-90
2023/08/19 08:37:21;;;;;;;;;8.60;8.60;;;;;28.52;61.85;99634.03;4976321;28;8840;-90
2023/08/19 08:39:49;;;;;;;;;8.00;8.00;;;;;28.51;61.78;99651.56;4976494;28;9606;-90
2023/08/19 08:42:16;;;;;;;;;7.60;6.80;;;;;28.51;61.27;99646.06;4976025;28;8878;-90
2023/08/19 08:44:44;;;;;;;;;7.20;6.20;;;;;28.52;61.37;99663.38;4976436;28;8840;-89
2023/08/19 08:47:12;;;;;;;;;8.00;8.00;;;;;28.50;61.33;99665.50;4975917;28;9261;-90
2023/08/19 08:49:40;;;;;;;;;6.40;6.40;;;;;28.47;61.69;99674.22;4975709;28;8942;-90
2023/08/19 08:52:07;;;;;;;;;5.00;5.00;;;;;28.45;61.40;99673.63;4976255;28;8832;-89
2023/08/19 08:54:35;;;;;;;;;8.00;7.00;;;;;28.41;61.44;99678.78;4974530;28;8951;-89
2023/08/19 08:57:03;;;;;;;;;4.60;4.00;;;;;28.38;62.20;99684.72;4974735;28;8856;-90
2023/08/19 08:59:30;;;;;;;;;7.80;7.00;;;;;28.36;62.34;99684.13;4975188;28;8858;-90
2023/08/19 09:01:58;;;;;;;;;8.80;8.40;;;;;28.32;61.74;99690.31;4975498;28;9203;-89
2023/08/19 09:04:26;;;;;;;;;7.60;7.00;;;;;28.27;62.06;99685.56;4975962;28;8852;-89
2023/08/19 09:06:54;;;;;;;;;8.20;8.00;;;;;28.22;62.59;99681.91;4976475;28;8867;-89
2023/08/19 09:09:22;;;;;;;;;7.60;6.60;;;;;28.17;62.22;99679.88;4975493;28;8929;-89
2023/08/19 09:11:50;;;;;;;;;7.60;7.20;;;;;28.12;62.42;99690.72;4975805;28;8848;-89
2023/08/19 09:14:18;;;;;;;;;7.20;6.00;;;;;28.08;62.99;99685.97;4975335;28;8852;-89
2023/08/19 09:16:45;;;;;;;;;9.00;8.80;;;;;28.07;62.80;99682.38;4975416;28;8884;-89
2023/08/19 09:19:14;;;;;;;;;9.00;8.80;;;;;28.09;62.88;99680.25;4975407;28;8832;-89
2023/08/19 09:21:41;;;;;;;;;9.00;9.00;;;;;28.12;62.53;99679.75;4979042;28;8844;-90
2023/08/19 09:24:11;;;;;;;;;7.60;7.00;;;;;28.17;62.18;99681.78;4975664;28;8852;-89
2023/08/19 09:26:39;;;;;;;;;8.00;8.00;;;;;28.22;62.44;99679.97;4975249;28;8872;-89
2023/08/19 09:29:07;;;;;;;;;4.20;4.00;;;;;28.32;62.14;99668.41;4975759;28;8833;-88
2023/08/19 09:31:38;;;;;;;;;9.00;7.80;;;;;28.43;61.69;99671.13;4974771;28;9555;-89
2023/08/19 09:34:06;;;;;;;;;7.40;7.20;;;;;28.57;61.50;99671.66;4975206;28;8946;-89
2023/08/19 09:36:33;;;;;;;;;8.60;6.20;;;;;28.78;61.12;99663.59;4975145;28;8974;-89
2023/08/19 09:39:03;;;;;;;;;9.40;8.80;;;;;28.98;61.07;99661.25;4975239;28;8841;-89
2023/08/19 09:41:31;;;;;;;;;7.60;7.60;;;;;29.14;60.00;99676.91;4974954;28;8967;-89
2023/08/19 09:43:59;;;;;;;;;8.40;8.20;;;;;29.26;60.39;99665.88;4975228;28;8833;-89
2023/08/19 09:46:26;;;;;;;;;7.00;7.00;;;;;29.36;60.34;99668.78;4974647;28;8947;-89
2023/08/19 09:48:54;;;;;;;;;8.80;7.80;;;;;29.47;59.65;99673.34;4974800;28;8926;-89
2023/08/19 09:51:22;;;;;;;;;8.00;8.00;;;;;29.54;59.23;99677.63;4975153;28;8954;-88
2023/08/19 09:53:50;;;;;;;;;8.40;7.60;;;;;29.56;60.03;99680.94;4974704;28;8987;-89
2023/08/19 09:56:19;;;;;;;;;6.40;6.40;;;;;29.60;59.41;99679.38;4975550;28;8974;-89
2023/08/19 09:58:47;;;;;;;;;9.40;9.00;;;;;29.61;59.89;99681.03;4975371;28;8866;-89
2023/08/19 10:01:15;;;;;;;;;10.80;10.80;;;;;29.60;59.31;99681.28;4974529;28;8915;-89
2023/08/19 10:03:43;;;;;;;;;9.20;9.00;;;;;29.56;59.75;99689.19;4977154;28;8927;-88
2023/08/19 10:06:11;;;;;;;;;9.40;8.60;;;;;29.50;59.95;99687.41;4976373;28;9645;-88
2023/08/19 10:08:41;;;;;;;;;8.80;8.80;;;;;29.47;59.80;99698.88;4974689;28;8946;-88
2023/08/19 10:11:08;;;;;;;;;9.00;8.60;;;;;29.48;60.20;99710.69;4973876;28;8861;-88
2023/08/19 10:13:36;;;;;;;;;9.60;8.80;;;;;29.49;60.01;99715.94;4974088;28;8848;-88
2023/08/19 10:16:04;;;;;;;;;8.40;8.00;;;;;29.52;60.11;99706.41;4974310;28;8852;-88
2023/08/19 10:18:35;;;;;;;;;10.60;9.80;;;;;29.57;59.70;99710.06;4973914;28;8849;-88
2023/08/19 10:21:04;;;;;;;;;10.80;9.60;;;;;29.64;59.61;99709.91;4974571;28;8862;-88
2023/08/19 10:23:34;;;;;;;;;10.20;9.80;;;;;29.66;59.28;99708.56;4974139;28;8914;-89
2023/08/19 10:26:02;;;;;;;;;6.40;6.40;;;;;29.62;60.00;99706.56;4974719;28;8841;-88
2023/08/19 10:28:30;;;;;;;;;10.60;10.20;;;;;29.59;59.77;99712.56;4974698;28;9763;-87
2023/08/19 10:30:57;;;;;;;;;9.00;7.60;;;;;29.61;59.54;99713.13;4975046;28;9515;-89
2023/08/19 10:33:25;;;;;;;;;9.60;9.20;;;;;29.68;59.48;99727.53;4974479;28;8833;-88
2023/08/19 10:35:53;;;;;;;;;8.80;8.60;;;;;29.77;59.52;99726.88;4974061;28;8891;-89
2023/08/19 10:38:21;;;;;;;;;9.00;9.00;;;;;29.89;59.31;99724.84;4973705;28;8848;-88
2023/08/19 10:40:48;;;;;;;;;10.80;9.60;;;;;30.02;58.82;99727.25;4974142;28;8855;-89
2023/08/19 10:43:16;;;;;;;;;7.00;7.00;;;;;30.15;58.52;99726.94;4973190;28;8937;-88
2023/08/19 10:45:47;;;;;;;;;9.60;9.60;;;;;30.30;58.30;99731.78;4973961;28;8859;-89
2023/08/19 10:48:15;;;;;;;;;9.00;9.00;;;;;30.46;57.95;99725.41;4975032;28;8863;-88
2023/08/19 10:50:45;;;;;;;;;10.20;10.20;;;;;30.62;57.72;99733.63;4974127;28;8863;-88
2023/08/19 10:53:13;;;;;;;;;10.20;9.40;;;;;30.78;57.87;99740.97;4973826;28;8856;-88
2023/08/19 10:55:41;;;;;;;;;7.00;6.80;;;;;30.86;57.70;99740.50;4973613;28;8913;-88
2023/08/19 10:58:09;;;;;;;;;7.20;6.40;;;;;30.91;57.23;99746.09;4973706;28;8865;-89
2023/08/19 11:00:37;;;;;;;;;9.80;9.60;;;;;30.93;57.31;99744.75;4972408;28;8852;-89
2023/08/19 11:03:05;;;;;;;;;9.40;9.40;;;;;31.01;56.91;99748.94;4971802;28;9678;-88
2023/08/19 11:05:34;;;;;;;;;9.80;9.60;;;;;31.04;57.19;99753.94;4972970;28;8837;-88
2023/08/19 11:08:02;;;;;;;;;9.00;8.00;;;;;31.03;57.43;99749.53;4972989;28;8890;-88
2023/08/19 11:10:31;;;;;;;;;8.00;7.60;;;;;31.04;57.53;99753.94;4973661;28;8888;-88
2023/08/19 11:12:59;;;;;;;;;6.60;6.00;;;;;31.09;57.41;99751.22;4974244;28;9503;-89
2023/08/19 11:15:27;;;;;;;;;10.20;8.60;;;;;31.21;57.65;99749.19;4977083;28;8868;-88
2023/08/19 11:17:55;;;;;;;;;7.00;7.00;;;;;31.39;56.25;99751.56;4977723;28;8860;-88
2023/08/19 11:20:23;;;;;;;;;10.00;9.40;;;;;31.54;56.13;99749.78;4977125;28;8856;-89
2023/08/19 11:22:51;;;;;;;;;10.80;10.00;;;;;31.58;56.69;99747.34;4977601;28;8837;-89
2023/08/19 11:25:19;;;;;;;;;8.40;8.20;;;;;31.62;55.60;99749.31;4977317;28;8840;-89
2023/08/19 11:27:47;;;;;;;;;7.20;6.40;;;;;31.70;56.24;99750.78;4975951;28;8848;-90
2023/08/19 11:30:18;;;;;;;;;6.00;5.60;;;;;31.83;55.72;99747.56;4976103;28;8864;-89
2023/08/19 11:32:47;;;;;;;;;9.60;7.40;;;;;31.99;56.00;99754.84;4976682;28;8848;-89
2023/08/19 11:35:16;;;;;;;;;10.80;9.60;;;;;32.04;55.17;99746.63;4977610;28;8844;-89